createdAt,value
2019-03-03T00:00:30.256Z,94358.87
2019-03-03T00:02:58.937Z,94360.22
2019-03-03T00:05:27.606Z,94366.38
2019-03-03T00:07:56.274Z,94356.33
2019-03-03T00:10:24.955Z,94360.67
2019-03-03T00:12:53.630Z,94371.78
2019-03-03T00:15:22.309Z,94370.27
2019-03-03T00:17:50.988Z,94370.00
2019-03-03T00:20:19.659Z,94378.98
2019-03-03T00:22:48.327Z,94375.39
2019-03-03T00:25:17.390Z,94372.23
2019-03-03T00:27:46.062Z,94378.52
2019-03-03T00:30:17.243Z,94382.56
2019-03-03T00:32:46.001Z,94380.36
2019-03-03T00:35:15.172Z,94380.81
2019-03-03T00:38:01.837Z,94382.31
2019-03-03T00:40:47.356Z,94385.04
2019-03-03T00:43:32.905Z,94378.89
2019-03-03T00:46:05.778Z,94360.19
2019-03-03T00:48:41.993Z,94384.75
2019-03-03T00:51:12.223Z,94384.17
2019-03-03T00:53:45.441Z,94381.14
2019-03-03T00:56:21.786Z,94382.81
2019-03-03T00:59:04.033Z,94381.62
2019-03-03T01:01:34.273Z,94385.06
2019-03-03T01:04:04.524Z,94379.97
2019-03-03T01:06:37.761Z,94382.66
2019-03-03T01:09:13.340Z,94387.01
2019-03-03T01:11:55.306Z,94390.16
2019-03-03T01:14:37.217Z,94388.98
2019-03-03T01:17:16.598Z,94387.92
2019-03-03T01:20:05.186Z,94389.57
2019-03-03T01:22:51.871Z,94386.72
2019-03-03T01:25:20.542Z,94384.63
2019-03-03T01:27:49.217Z,94377.14
2019-03-03T01:30:17.886Z,94373.69
2019-03-03T01:32:46.561Z,94379.08
2019-03-03T01:35:15.225Z,94375.34
2019-03-03T01:37:43.913Z,94374.16
2019-03-03T01:40:12.782Z,94379.84
2019-03-03T01:42:41.486Z,94372.81
2019-03-03T01:45:14.537Z,94374.75
2019-03-03T01:47:43.207Z,94381.49
2019-03-03T01:50:15.068Z,94381.33
2019-03-03T01:52:43.752Z,94382.53
2019-03-03T01:55:13.239Z,94384.35
2019-03-03T01:57:41.894Z,94386.58
2019-03-03T02:00:21.985Z,94383.14
2019-03-03T02:02:51.266Z,94362.94
2019-03-03T02:05:19.899Z,94388.83
2019-03-03T02:07:48.611Z,94385.84
2019-03-03T02:10:19.319Z,94390.48
2019-03-03T02:12:48.015Z,94386.27
2019-03-03T02:15:19.863Z,94392.11
2019-03-03T02:17:48.539Z,94391.98
2019-03-03T02:20:17.205Z,94386.88
2019-03-03T02:22:45.878Z,94392.13
2019-03-03T02:25:15.249Z,94389.14
2019-03-03T02:27:44.030Z,94383.90
2019-03-03T02:30:22.358Z,94384.34
2019-03-03T02:32:51.031Z,94385.38
2019-03-03T02:35:19.685Z,94386.89
2019-03-03T02:37:48.360Z,94389.13
2019-03-03T02:40:19.098Z,94391.19
2019-03-03T02:42:47.863Z,94396.89
2019-03-03T02:45:17.043Z,94390.94
2019-03-03T02:47:45.734Z,94404.38
2019-03-03T02:50:17.784Z,94402.13
2019-03-03T02:52:46.856Z,94383.90
2019-03-03T02:55:18.500Z,94401.98
2019-03-03T02:57:47.112Z,94411.39
2019-03-03T03:00:25.213Z,94412.75
2019-03-03T03:02:55.445Z,94411.23
2019-03-03T03:05:33.553Z,94408.99
2019-03-03T03:08:09.961Z,94415.71
2019-03-03T03:10:46.110Z,94410.45
2019-03-03T03:13:32.907Z,94411.36
2019-03-03T03:16:05.881Z,94408.20
2019-03-03T03:18:36.128Z,94408.18
2019-03-03T03:21:22.833Z,94405.17
2019-03-03T03:23:59.097Z,94408.77
2019-03-03T03:26:29.333Z,94410.69
2019-03-03T03:29:05.329Z,94413.27
2019-03-03T03:31:44.365Z,94409.22
2019-03-03T03:34:14.599Z,94406.80
2019-03-03T03:36:50.998Z,94409.62
2019-03-03T03:39:33.415Z,94408.57
2019-03-03T03:42:03.649Z,94407.37
2019-03-03T03:44:36.978Z,94402.25
2019-03-03T03:47:07.222Z,94394.47
2019-03-03T03:49:46.550Z,94410.66
2019-03-03T03:52:32.786Z,94400.75
2019-03-03T03:55:03.026Z,94403.14
2019-03-03T03:57:42.524Z,94400.59
2019-03-03T04:00:18.588Z,94401.20
2019-03-03T04:02:54.885Z,94408.06
2019-03-03T04:05:25.106Z,94403.60
2019-03-03T04:08:03.965Z,94404.91
2019-03-03T04:10:37.035Z,94409.31
2019-03-03T04:13:13.175Z,94410.53
2019-03-03T04:15:49.532Z,94401.23
2019-03-03T04:18:19.765Z,94403.48
2019-03-03T04:20:52.941Z,94411.27
2019-03-03T04:23:39.694Z,94407.39
2019-03-03T04:26:09.918Z,94411.87
2019-03-03T04:28:45.903Z,94413.95
2019-03-03T04:31:16.134Z,94410.80
2019-03-03T04:33:58.599Z,94413.50
2019-03-03T04:39:27.087Z,94419.34
2019-03-03T04:41:57.344Z,94422.88
2019-03-03T04:44:30.638Z,94421.43
2019-03-03T04:47:03.759Z,94416.80
2019-03-03T04:49:46.207Z,94417.80
2019-03-03T04:52:22.514Z,94415.10
2019-03-03T04:55:01.900Z,94391.83
2019-03-03T04:57:37.874Z,94418.11
2019-03-03T05:00:26.294Z,94419.23
2019-03-03T05:03:02.406Z,94425.59
2019-03-03T05:05:32.644Z,94421.77
2019-03-03T05:08:05.836Z,94424.94
2019-03-03T05:10:52.469Z,94424.98
2019-03-03T05:13:22.705Z,94427.22
2019-03-03T05:15:52.971Z,94427.95
2019-03-03T05:18:23.262Z,94432.02
2019-03-03T05:20:51.912Z,94434.88
2019-03-03T05:23:20.584Z,94436.26
2019-03-03T05:25:49.255Z,94444.93
2019-03-03T05:28:17.914Z,94447.94
2019-03-03T05:30:46.574Z,94445.70
2019-03-03T05:33:15.244Z,94447.94
2019-03-03T05:35:43.906Z,94451.89
2019-03-03T05:38:12.603Z,94459.39
2019-03-03T05:40:41.253Z,94455.48
2019-03-03T05:43:09.915Z,94462.44
2019-03-03T05:45:38.569Z,94458.86
2019-03-03T05:48:07.244Z,94466.64
2019-03-03T05:50:35.918Z,94465.48
2019-03-03T05:53:04.779Z,94474.33
2019-03-03T05:55:33.416Z,94474.84
2019-03-03T05:58:02.084Z,94466.61
2019-03-03T06:00:30.990Z,94474.20
2019-03-03T06:02:59.655Z,94481.41
2019-03-03T06:05:28.336Z,94485.20
2019-03-03T06:07:57.014Z,94492.09
2019-03-03T06:10:25.685Z,94481.44
2019-03-03T06:12:54.397Z,94483.99
2019-03-03T06:15:23.066Z,94490.14
2019-03-03T06:17:51.727Z,94491.72
2019-03-03T06:20:20.410Z,94489.91
2019-03-03T06:22:49.089Z,94488.92
2019-03-03T06:25:17.744Z,94492.39
2019-03-03T06:27:46.418Z,94488.05
2019-03-03T06:30:15.788Z,94490.02
2019-03-03T06:32:44.457Z,94492.70
2019-03-03T06:35:13.420Z,94491.80
2019-03-03T06:37:42.197Z,94493.76
2019-03-03T06:40:11.586Z,94499.72
2019-03-03T06:42:40.274Z,94506.61
2019-03-03T06:45:13.792Z,94497.16
2019-03-03T06:47:42.447Z,94500.34
2019-03-03T06:50:12.605Z,94509.58
2019-03-03T06:52:41.318Z,94511.19
2019-03-03T06:55:10.260Z,94515.48
2019-03-03T06:57:39.018Z,94512.01
2019-03-03T07:00:10.666Z,94515.94
2019-03-03T07:02:39.353Z,94517.68
2019-03-03T07:05:09.614Z,94522.29
2019-03-03T07:07:38.338Z,94520.95
2019-03-03T07:10:09.697Z,94522.50
2019-03-03T07:12:38.378Z,94514.50
2019-03-03T07:15:10.060Z,94521.38
2019-03-03T07:17:38.728Z,94522.69
2019-03-03T07:20:09.698Z,94515.68
2019-03-03T07:22:38.368Z,94521.53
2019-03-03T07:25:17.265Z,94526.63
2019-03-03T07:27:45.944Z,94519.93
2019-03-03T07:30:15.713Z,94524.96
2019-03-03T07:32:45.958Z,94513.44
2019-03-03T07:35:14.637Z,94525.41
2019-03-03T07:37:43.344Z,94524.96
2019-03-03T07:40:12.002Z,94525.58
2019-03-03T07:42:40.668Z,94530.33
2019-03-03T07:45:12.112Z,94530.09
2019-03-03T07:47:40.791Z,94523.53
2019-03-03T07:50:09.468Z,94523.53
2019-03-03T07:52:38.141Z,94535.97
2019-03-03T07:55:09.021Z,94536.68
2019-03-03T07:57:37.788Z,94531.23
2019-03-03T08:00:11.483Z,94535.98
2019-03-03T08:02:40.151Z,94534.52
2019-03-03T08:05:09.924Z,94536.13
2019-03-03T08:07:38.604Z,94536.80
2019-03-03T08:10:17.438Z,94542.33
2019-03-03T08:12:46.123Z,94543.63
2019-03-03T08:15:19.009Z,94553.16
2019-03-03T08:17:47.671Z,94548.86
2019-03-03T08:20:16.432Z,94550.97
2019-03-03T08:22:45.122Z,94545.59
2019-03-03T08:25:14.116Z,94558.73
2019-03-03T08:27:42.789Z,94550.79
2019-03-03T08:30:13.618Z,94554.23
2019-03-03T08:32:42.308Z,94553.17
2019-03-03T08:35:13.821Z,94555.98
2019-03-03T08:37:42.555Z,94552.42
2019-03-03T08:40:11.648Z,94555.09
2019-03-03T08:42:56.957Z,94555.53
2019-03-03T08:45:27.304Z,94547.84
2019-03-03T08:48:03.638Z,94553.27
2019-03-03T08:50:33.854Z,94563.92
2019-03-03T08:53:06.886Z,94556.09
2019-03-03T08:55:42.881Z,94562.11
2019-03-03T08:58:28.107Z,94556.23
2019-03-03T09:00:58.337Z,94560.95
2019-03-03T09:03:44.845Z,94563.22
2019-03-03T09:06:31.289Z,94560.17
2019-03-03T09:09:10.226Z,94541.87
2019-03-03T09:11:40.475Z,94560.40
2019-03-03T09:14:25.927Z,94556.16
2019-03-03T09:16:56.163Z,94558.39
2019-03-03T09:19:26.414Z,94560.89
2019-03-03T09:21:56.639Z,94565.61
2019-03-03T09:24:26.886Z,94566.58
2019-03-03T09:27:09.323Z,94564.36
2019-03-03T09:29:57.565Z,94568.86
2019-03-03T09:32:39.511Z,94570.08
2019-03-03T09:35:18.719Z,94562.91
2019-03-03T09:37:48.978Z,94568.41
2019-03-03T09:40:24.846Z,94571.92
2019-03-03T09:42:57.958Z,94569.36
2019-03-03T09:45:33.966Z,94574.47
2019-03-03T09:48:06.960Z,94569.99
2019-03-03T09:50:43.285Z,94574.19
2019-03-03T09:53:25.437Z,94575.01
2019-03-03T09:56:11.984Z,94574.03
2019-03-03T09:58:58.240Z,94573.66
2019-03-03T10:01:31.035Z,94574.27
2019-03-03T10:04:17.392Z,94577.84
2019-03-03T10:07:04.232Z,94575.76
2019-03-03T10:09:52.478Z,94580.16
2019-03-03T10:12:38.947Z,94573.02
2019-03-03T10:15:14.493Z,94567.99
2019-03-03T10:17:51.004Z,94565.28
2019-03-03T10:20:27.538Z,94563.81
2019-03-03T10:23:14.415Z,94549.89
2019-03-03T10:25:59.707Z,94562.69
2019-03-03T10:28:38.650Z,94559.68
2019-03-03T10:31:14.784Z,94560.25
2019-03-03T10:34:01.184Z,94560.25
2019-03-03T10:36:37.451Z,94554.95
2019-03-03T10:39:10.138Z,94563.18
2019-03-03T10:41:49.283Z,94555.27
2019-03-03T10:44:34.388Z,94553.37
2019-03-03T10:47:07.210Z,94546.53
2019-03-03T10:49:40.248Z,94540.16
2019-03-03T10:52:10.508Z,94546.04
2019-03-03T10:54:40.777Z,94539.10
2019-03-03T10:57:17.068Z,94542.03
2019-03-03T11:00:03.478Z,94544.52
2019-03-03T11:02:33.815Z,94545.47
2019-03-03T11:05:19.419Z,94542.77
2019-03-03T11:07:52.645Z,94541.20
2019-03-03T11:10:25.630Z,94542.13
2019-03-03T11:13:04.914Z,94545.46
2019-03-03T11:15:35.161Z,94542.72
2019-03-03T11:18:08.263Z,94539.53
2019-03-03T11:20:47.641Z,94535.59
2019-03-03T11:23:34.245Z,94535.05
2019-03-03T11:26:07.258Z,94535.29
2019-03-03T11:28:37.495Z,94537.29
2019-03-03T11:31:16.754Z,94539.27
2019-03-03T11:33:50.104Z,94534.44
2019-03-03T11:36:23.496Z,94537.97
2019-03-03T11:38:56.803Z,94530.31
2019-03-03T11:41:39.329Z,94535.31
2019-03-03T11:44:12.567Z,94538.99
2019-03-03T11:46:45.728Z,94530.70
2019-03-03T11:49:16.046Z,94539.46
2019-03-03T11:51:49.133Z,94532.31
2019-03-03T11:54:19.363Z,94529.61
2019-03-03T11:56:49.601Z,94538.98
2019-03-03T11:59:25.974Z,94532.14
2019-03-03T12:01:59.304Z,94528.15
2019-03-03T12:04:29.644Z,94526.46
2019-03-03T12:07:02.615Z,94523.27
2019-03-03T12:09:35.605Z,94527.34
2019-03-03T12:12:05.950Z,94531.08
2019-03-03T12:14:36.200Z,94528.19
2019-03-03T12:17:06.524Z,94531.18
2019-03-03T12:19:52.038Z,94524.98
2019-03-03T12:22:22.329Z,94527.94
2019-03-03T12:25:04.466Z,94520.13
2019-03-03T12:27:51.108Z,94528.03
2019-03-03T12:30:21.402Z,94524.18
2019-03-03T12:33:03.882Z,94526.69
2019-03-03T12:35:42.898Z,94526.16
2019-03-03T12:38:29.307Z,94530.25
2019-03-03T12:41:15.879Z,94532.02
2019-03-03T12:43:46.125Z,94532.12
2019-03-03T12:46:16.415Z,94523.34
2019-03-03T12:48:46.654Z,94522.31
2019-03-03T12:51:16.938Z,94517.83
2019-03-03T12:53:53.165Z,94525.31
2019-03-03T12:56:32.204Z,94522.26
2019-03-03T12:59:11.477Z,94517.86
2019-03-03T13:01:57.964Z,94513.05
2019-03-03T13:04:31.196Z,94514.14
2019-03-03T13:07:07.412Z,94518.08
2019-03-03T13:09:37.662Z,94506.13
2019-03-03T13:12:07.903Z,94505.70
2019-03-03T13:14:43.874Z,94518.08
2019-03-03T13:17:14.112Z,94512.81
2019-03-03T13:19:44.346Z,94511.63
2019-03-03T13:22:29.898Z,94509.28
2019-03-03T13:25:09.050Z,94507.50
2019-03-03T13:27:45.304Z,94510.01
2019-03-03T13:30:25.063Z,94504.46
2019-03-03T13:32:58.542Z,94506.34
2019-03-03T13:35:31.724Z,94510.52
2019-03-03T13:38:14.116Z,94499.07
2019-03-03T13:41:00.652Z,94493.11
2019-03-03T13:43:29.330Z,94497.84
2019-03-03T13:45:58.118Z,94489.94
2019-03-03T13:48:26.791Z,94492.75
2019-03-03T13:50:55.459Z,94500.19
2019-03-03T13:53:24.160Z,94490.38
2019-03-03T13:55:52.833Z,94493.67
2019-03-03T13:58:21.498Z,94487.03
2019-03-03T14:00:50.159Z,94488.28
2019-03-03T14:03:18.877Z,94486.97
2019-03-03T14:05:47.558Z,94487.13
2019-03-03T14:08:16.223Z,94491.47
2019-03-03T14:10:44.893Z,94492.12
2019-03-03T14:13:13.561Z,94487.42
2019-03-03T14:15:42.226Z,94492.52
2019-03-03T14:18:10.910Z,94490.13
2019-03-03T14:20:39.559Z,94486.24
2019-03-03T14:23:08.330Z,94486.24
2019-03-03T14:25:37.000Z,94484.50
2019-03-03T14:28:05.786Z,94484.38
2019-03-03T14:30:34.491Z,94479.41
2019-03-03T14:33:03.156Z,94478.14
2019-03-03T14:35:31.873Z,94479.84
2019-03-03T14:38:00.566Z,94484.57
2019-03-03T14:40:29.222Z,94477.88
2019-03-03T14:42:57.915Z,94479.77
2019-03-03T14:45:27.192Z,94472.27
2019-03-03T14:47:55.856Z,94455.52
2019-03-03T14:50:24.740Z,94473.27
2019-03-03T14:52:55.216Z,94478.33
2019-03-03T14:55:24.034Z,94476.22
2019-03-03T14:57:52.693Z,94467.95
2019-03-03T15:00:24.370Z,94476.50
2019-03-03T15:02:54.805Z,94464.78
2019-03-03T15:05:23.458Z,94466.06
2019-03-03T15:07:52.127Z,94459.44
2019-03-03T15:10:21.094Z,94470.97
2019-03-03T15:12:49.756Z,94455.67
2019-03-03T15:15:21.282Z,94477.05
2019-03-03T15:17:49.927Z,94468.52
2019-03-03T15:20:18.695Z,94469.20
2019-03-03T15:22:47.355Z,94468.40
2019-03-03T15:25:16.425Z,94472.47
2019-03-03T15:27:45.199Z,94473.22
2019-03-03T15:30:16.771Z,94471.67
2019-03-03T15:32:45.531Z,94476.48
2019-03-03T15:35:14.300Z,94470.17
2019-03-03T15:37:42.979Z,94473.46
2019-03-03T15:40:28.807Z,94466.73
2019-03-03T15:42:57.494Z,94477.39
2019-03-03T15:45:29.872Z,94472.31
2019-03-03T15:47:58.526Z,94474.69
2019-03-03T15:50:27.377Z,94472.11
2019-03-03T15:52:56.037Z,94474.06
2019-03-03T15:55:29.380Z,94479.15
2019-03-03T15:57:58.041Z,94471.83
2019-03-03T16:00:35.662Z,94475.70
2019-03-03T16:03:04.671Z,94460.29
2019-03-03T16:05:33.332Z,94472.64
2019-03-03T16:08:02.158Z,94465.52
2019-03-03T16:10:30.843Z,94469.84
2019-03-03T16:12:59.507Z,94472.48
2019-03-03T16:15:28.274Z,94476.64
2019-03-03T16:17:56.947Z,94479.73
2019-03-03T16:20:25.711Z,94481.92
2019-03-03T16:22:54.380Z,94487.15
2019-03-03T16:25:24.044Z,94486.75
2019-03-03T16:27:53.015Z,94491.88
2019-03-03T16:30:23.655Z,94482.33
2019-03-03T16:32:52.335Z,94480.28
2019-03-03T16:35:21.019Z,94481.49
2019-03-03T16:37:49.721Z,94478.49
2019-03-03T16:40:22.579Z,94481.83
2019-03-03T16:42:51.284Z,94478.30
2019-03-03T16:45:20.075Z,94480.34
2019-03-03T16:47:48.866Z,94474.09
2019-03-03T16:50:19.966Z,94476.41
2019-03-03T16:52:49.132Z,94482.60
2019-03-03T16:55:18.996Z,94483.81
2019-03-03T16:57:47.650Z,94482.78
2019-03-03T17:00:24.439Z,94482.27
2019-03-03T17:02:53.187Z,94481.36
2019-03-03T17:05:24.783Z,94482.38
2019-03-03T17:07:53.451Z,94479.82
2019-03-03T17:10:22.121Z,94480.92
2019-03-03T17:12:50.939Z,94481.03
2019-03-03T17:15:24.353Z,94490.25
2019-03-03T17:17:53.009Z,94489.97
2019-03-03T17:20:21.666Z,94489.38
2019-03-03T17:22:50.334Z,94489.05
2019-03-03T17:25:21.463Z,94489.45
2019-03-03T17:27:50.136Z,94491.83
2019-03-03T17:30:28.002Z,94498.59
2019-03-03T17:32:56.864Z,94501.16
2019-03-03T17:35:25.623Z,94500.00
2019-03-03T17:37:56.542Z,94474.84
2019-03-03T17:40:29.155Z,94499.41
2019-03-03T17:42:57.828Z,94501.64
2019-03-03T17:45:26.710Z,94498.64
2019-03-03T17:47:55.358Z,94481.21
2019-03-03T17:50:26.943Z,94492.30
2019-03-03T17:52:55.609Z,94496.95
2019-03-03T17:55:24.393Z,94496.22
2019-03-03T17:57:53.154Z,94492.34
2019-03-03T18:00:33.691Z,94491.13
2019-03-03T18:03:02.346Z,94489.16
2019-03-03T18:05:31.011Z,94490.59
2019-03-03T18:07:59.722Z,94493.37
2019-03-03T18:10:28.421Z,94496.55
2019-03-03T18:12:57.134Z,94497.09
2019-03-03T18:15:25.757Z,94498.05
2019-03-03T18:17:54.443Z,94495.56
2019-03-03T18:20:23.123Z,94494.06
2019-03-03T18:22:51.954Z,94493.66
2019-03-03T18:25:21.617Z,94493.37
2019-03-03T18:27:50.318Z,94494.31
2019-03-03T18:30:29.190Z,94489.63
2019-03-03T18:32:57.854Z,94489.27
2019-03-03T18:35:26.518Z,94483.23
2019-03-03T18:37:55.178Z,94483.12
2019-03-03T18:40:24.957Z,94489.01
2019-03-03T18:42:54.154Z,94487.51
2019-03-03T18:45:23.634Z,94481.03
2019-03-03T18:47:52.401Z,94486.48
2019-03-03T18:50:26.426Z,94484.87
2019-03-03T18:52:55.095Z,94483.73
2019-03-03T18:55:23.802Z,94482.91
2019-03-03T18:57:52.558Z,94485.95
2019-03-03T19:00:23.774Z,94488.55
2019-03-03T19:02:52.532Z,94488.48
2019-03-03T19:05:21.201Z,94483.02
2019-03-03T19:07:49.864Z,94483.58
2019-03-03T19:10:27.026Z,94488.60
2019-03-03T19:12:55.683Z,94489.25
2019-03-03T19:15:24.446Z,94490.13
2019-03-03T19:17:53.120Z,94487.75
2019-03-03T19:20:22.397Z,94492.30
2019-03-03T19:22:51.510Z,94463.95
2019-03-03T19:25:20.368Z,94487.84
2019-03-03T19:27:49.037Z,94486.97
2019-03-03T19:30:23.160Z,94488.00
2019-03-03T19:32:58.052Z,94489.67
2019-03-03T19:35:26.759Z,94490.28
2019-03-03T19:37:55.434Z,94488.93
2019-03-03T19:40:24.503Z,94479.30
2019-03-03T19:42:53.197Z,94479.79
2019-03-03T19:45:27.944Z,94487.58
2019-03-03T19:47:56.814Z,94484.97
2019-03-03T19:50:25.558Z,94491.86
2019-03-03T19:52:54.329Z,94466.66
2019-03-03T19:55:23.331Z,94483.58
2019-03-03T19:57:52.032Z,94485.46
2019-03-03T20:00:35.633Z,94483.16
2019-03-03T20:02:59.397Z,94487.73
2019-03-03T20:05:28.066Z,94487.52
2019-03-03T20:07:56.739Z,94487.78
2019-03-03T20:10:25.513Z,94485.08
2019-03-03T20:12:54.183Z,94495.31
2019-03-03T20:15:23.346Z,94484.16
2019-03-03T20:17:52.029Z,94486.34
2019-03-03T20:20:21.804Z,94484.87
2019-03-03T20:22:50.562Z,94480.66
2019-03-03T20:25:19.327Z,94481.87
2019-03-03T20:27:48.112Z,94484.72
2019-03-03T20:30:19.282Z,94486.58
2019-03-03T20:32:48.113Z,94482.52
2019-03-03T20:35:16.904Z,94479.25
2019-03-03T20:37:46.674Z,94486.34
2019-03-03T20:40:20.265Z,94474.96
2019-03-03T20:42:48.951Z,94469.05
2019-03-03T20:45:20.648Z,94478.72
2019-03-03T20:47:49.286Z,94475.58
2019-03-03T20:50:19.659Z,94473.16
2019-03-03T20:52:49.034Z,94478.98
2019-03-03T20:55:25.598Z,94477.88
2019-03-03T20:57:54.278Z,94474.02
2019-03-03T21:00:25.418Z,94478.48
2019-03-03T21:02:54.145Z,94478.40
2019-03-03T21:05:22.822Z,94468.46
2019-03-03T21:07:52.267Z,94475.05
2019-03-03T21:10:32.116Z,94476.20
2019-03-03T21:13:00.980Z,94472.84
2019-03-03T21:15:29.642Z,94475.52
2019-03-03T21:17:58.311Z,94480.28
2019-03-03T21:20:27.149Z,94480.48
2019-03-03T21:22:55.886Z,94471.71
2019-03-03T21:25:24.493Z,94476.51
2019-03-03T21:27:53.166Z,94468.47
2019-03-03T21:30:23.351Z,94463.05
2019-03-03T21:32:52.520Z,94465.13
2019-03-03T21:35:21.773Z,94457.92
2019-03-03T21:37:50.545Z,94452.89
2019-03-03T21:40:23.765Z,94462.91
2019-03-03T21:42:52.525Z,94462.81
2019-03-03T21:45:28.222Z,94463.70
2019-03-03T21:47:57.266Z,94463.14
2019-03-03T21:50:31.039Z,94462.20
2019-03-03T21:52:59.709Z,94451.99
2019-03-03T21:55:28.470Z,94459.46
2019-03-03T21:57:57.152Z,94455.70
2019-03-03T22:00:31.129Z,94449.91
2019-03-03T22:02:59.823Z,94445.03
2019-03-03T22:05:28.598Z,94443.78
2019-03-03T22:07:57.302Z,94445.94
2019-03-03T22:10:33.009Z,94449.17
2019-03-03T22:13:03.381Z,94443.06
2019-03-03T22:15:32.062Z,94445.54
2019-03-03T22:18:00.733Z,94454.13
2019-03-03T22:20:29.494Z,94446.30
2019-03-03T22:22:58.166Z,94449.72
2019-03-03T22:25:26.847Z,94452.91
2019-03-03T22:27:55.531Z,94446.22
2019-03-03T22:30:24.241Z,94452.98
2019-03-03T22:32:52.960Z,94450.50
2019-03-03T22:35:21.629Z,94450.81
2019-03-03T22:37:51.159Z,94443.30
2019-03-03T22:40:22.771Z,94423.00
2019-03-03T22:42:51.497Z,94432.88
2019-03-03T22:45:20.564Z,94443.88
2019-03-03T22:47:49.275Z,94439.78
2019-03-03T22:50:19.247Z,94433.55
2019-03-03T22:52:47.928Z,94437.28
2019-03-03T22:55:18.602Z,94438.33
2019-03-03T22:57:47.268Z,94436.24
2019-03-03T23:00:44.678Z,94430.70
2019-03-03T23:03:16.858Z,94432.27
2019-03-03T23:05:54.065Z,94444.77
2019-03-03T23:08:28.282Z,94447.61
2019-03-03T23:11:05.445Z,94444.49
2019-03-03T23:13:37.023Z,94445.11
2019-03-03T23:16:14.492Z,94435.42
2019-03-03T23:19:08.719Z,94444.73
2019-03-03T23:21:55.028Z,94438.02
2019-03-03T23:24:26.663Z,94437.44
2019-03-03T23:26:55.337Z,94440.01
2019-03-03T23:29:24.014Z,94440.17
2019-03-03T23:31:52.679Z,94436.42
2019-03-03T23:34:21.356Z,94435.36
2019-03-03T23:36:50.129Z,94434.16
2019-03-03T23:39:18.844Z,94434.45
2019-03-03T23:41:47.523Z,94434.46
2019-03-03T23:44:17.193Z,94435.07
2019-03-03T23:46:45.899Z,94438.34
2019-03-03T23:49:15.336Z,94442.79
2019-03-03T23:51:44.016Z,94439.50
2019-03-03T23:54:12.682Z,94439.61
2019-03-03T23:56:41.395Z,94439.46
2019-03-03T23:59:10.106Z,94436.44
